Time;durP1;ratioP1;P1;durP2;ratioP2;P2;SDS_P1;SDS_P2;PMS_P1;PMS_P2;Temp;Humidity;BMP_temperature;BMP_pressure;BME280_temperature;BME280_humidity;BME280_pressure;Samples;Min_cycle;Max_cycle;Signal;HPM_P1;HPM_P2
2020/12/25 00:00:40;;;;;;;103.38;47.95;;;12.50;99.90;;;;;;5051375;28;20025;-77
2020/12/25 00:03:07;;;;;;;94.63;47.83;;;12.50;99.90;;;;;;5051598;28;20040;-76
2020/12/25 00:05:32;;;;;;;91.75;46.85;;;12.50;99.90;;;;;;5051141;28;20053;-75
2020/12/25 00:07:58;;;;;;;95.65;48.00;;;12.50;99.90;;;;;;5051203;28;20052;-76
2020/12/25 00:10:24;;;;;;;96.40;47.25;;;12.40;99.90;;;;;;5051296;28;20041;-75
2020/12/25 00:12:49;;;;;;;115.57;57.30;;;12.40;99.90;;;;;;5051353;28;20025;-75
2020/12/25 00:15:15;;;;;;;107.57;51.58;;;12.40;99.90;;;;;;5051323;28;20049;-75
2020/12/25 00:17:40;;;;;;;99.07;49.17;;;12.40;99.90;;;;;;5051403;28;20078;-77
2020/12/25 00:20:06;;;;;;;103.93;49.42;;;12.40;99.90;;;;;;5051077;28;20021;-76
2020/12/25 00:22:32;;;;;;;103.97;47.13;;;12.40;99.90;;;;;;5050974;28;20067;-76
2020/12/25 00:24:57;;;;;;;95.50;46.95;;;12.40;99.90;;;;;;5049705;28;20604;-77
2020/12/25 00:27:23;;;;;;;115.80;48.72;;;12.40;99.90;;;;;;5050243;28;20096;-77
2020/12/25 00:29:49;;;;;;;94.35;46.33;;;12.40;99.90;;;;;;5050762;28;20028;-76
2020/12/25 00:32:15;;;;;;;95.15;45.72;;;12.40;99.90;;;;;;5051182;28;20024;-77
2020/12/25 00:34:40;;;;;;;96.20;46.97;;;12.30;99.90;;;;;;5050160;28;20021;-77
2020/12/25 00:37:06;;;;;;;107.80;48.28;;;12.40;99.90;;;;;;5050334;28;20021;-76
2020/12/25 00:39:31;;;;;;;94.28;47.97;;;12.40;99.90;;;;;;5050362;28;20556;-76
2020/12/25 00:41:57;;;;;;;102.97;49.13;;;12.40;99.90;;;;;;5041462;28;20077;-77
2020/12/25 00:44:23;;;;;;;100.07;49.65;;;12.40;99.90;;;;;;5030413;28;20025;-76
2020/12/25 00:46:48;;;;;;;103.32;48.83;;;12.40;99.90;;;;;;5030873;28;20068;-76
2020/12/25 00:49:15;;;;;;;98.00;47.78;;;12.40;99.90;;;;;;5043963;28;20030;-77
2020/12/25 00:51:43;;;;;;;102.45;49.28;;;12.40;99.90;;;;;;5047185;28;20032;-75
2020/12/25 00:54:09;;;;;;;105.03;50.35;;;12.30;99.90;;;;;;5033244;28;20056;-76
2020/12/25 00:56:35;;;;;;;104.55;51.15;;;12.30;99.90;;;;;;5034501;28;20064;-77
2020/12/25 00:59:00;;;;;;;99.80;50.35;;;12.30;99.90;;;;;;5029736;28;20053;-76
2020/12/25 01:01:26;;;;;;;112.75;52.67;;;12.30;99.90;;;;;;5034664;28;20018;-75
2020/12/25 01:03:52;;;;;;;102.32;52.60;;;12.20;99.90;;;;;;5010903;28;20030;-75
2020/12/25 01:06:19;;;;;;;108.00;52.88;;;12.20;99.90;;;;;;5030099;28;20044;-76
2020/12/25 01:08:49;;;;;;;115.60;54.30;;;12.20;99.90;;;;;;5033392;28;20108;-77
2020/12/25 01:11:16;;;;;;;110.18;54.67;;;12.20;99.90;;;;;;5032551;28;20036;-76
2020/12/25 01:13:45;;;;;;;115.70;55.90;;;12.20;99.90;;;;;;5031360;28;20025;-77
2020/12/25 01:16:16;;;;;;;118.80;57.55;;;12.20;99.90;;;;;;5034334;28;20059;-76
2020/12/25 01:18:43;;;;;;;130.95;59.35;;;12.30;99.90;;;;;;5032672;28;20033;-77
2020/12/25 01:21:08;;;;;;;122.03;56.95;;;12.30;99.90;;;;;;5035332;28;20025;-76
2020/12/25 01:23:34;;;;;;;118.85;55.97;;;12.20;99.90;;;;;;5034775;28;20055;-75
2020/12/25 01:26:00;;;;;;;121.18;58.33;;;12.20;99.90;;;;;;5034965;28;20033;-77
2020/12/25 01:28:25;;;;;;;123.00;57.55;;;12.20;99.90;;;;;;5048476;28;20034;-75
2020/12/25 01:30:51;;;;;;;130.90;57.95;;;12.20;99.90;;;;;;5033214;28;20049;-75
2020/12/25 01:33:17;;;;;;;121.80;58.17;;;12.20;99.90;;;;;;5034204;28;20022;-76
2020/12/25 01:35:42;;;;;;;126.05;59.15;;;12.20;99.90;;;;;;5045801;28;20152;-75
2020/12/25 01:38:09;;;;;;;127.70;59.97;;;12.20;99.90;;;;;;5020406;28;20050;-76
2020/12/25 01:40:35;;;;;;;122.05;57.42;;;12.20;99.90;;;;;;5018538;28;20414;-76
2020/12/25 01:43:01;;;;;;;124.28;59.33;;;12.20;99.90;;;;;;5028193;28;20026;-78
2020/12/25 01:45:27;;;;;;;122.45;56.92;;;12.20;99.90;;;;;;5020937;28;20065;-77
2020/12/25 01:47:55;;;;;;;132.80;60.03;;;12.30;99.90;;;;;;5015324;28;20029;-75
2020/12/25 01:50:22;;;;;;;113.07;53.38;;;12.20;99.90;;;;;;5020937;28;20478;-77
2020/12/25 01:52:50;;;;;;;109.05;52.47;;;12.30;99.90;;;;;;5027605;28;20032;-77
2020/12/25 01:55:17;;;;;;;120.07;53.95;;;12.30;99.90;;;;;;5037713;28;20040;-77
2020/12/25 01:57:43;;;;;;;114.15;54.67;;;12.20;99.90;;;;;;5032292;28;20013;-75
2020/12/25 02:00:09;;;;;;;110.07;53.17;;;12.30;99.90;;;;;;5033475;28;20069;-75
2020/12/25 02:02:34;;;;;;;108.32;53.50;;;12.20;99.90;;;;;;5033719;28;20033;-76
2020/12/25 02:05:00;;;;;;;106.60;53.50;;;12.20;99.90;;;;;;5034127;28;20028;-76
2020/12/25 02:07:26;;;;;;;114.63;55.17;;;12.10;99.90;;;;;;5033803;28;20045;-75
2020/12/25 02:09:52;;;;;;;117.75;55.95;;;12.10;99.90;;;;;;5033846;28;20086;-76
2020/12/25 02:12:18;;;;;;;127.45;57.22;;;12.00;99.90;;;;;;5033749;28;20025;-75
2020/12/25 02:14:44;;;;;;;112.60;55.60;;;12.00;99.90;;;;;;5033660;28;20017;-77
2020/12/25 02:17:09;;;;;;;123.25;55.92;;;12.00;99.90;;;;;;5033696;28;20021;-76
2020/12/25 02:19:39;;;;;;;127.20;58.83;;;12.00;99.90;;;;;;5032778;28;20018;-76
2020/12/25 02:22:05;;;;;;;135.00;58.42;;;12.00;99.90;;;;;;5033828;28;20485;-76
2020/12/25 02:24:31;;;;;;;125.22;59.13;;;11.90;99.90;;;;;;5033722;28;20029;-76
2020/12/25 02:26:57;;;;;;;137.05;60.30;;;11.90;99.90;;;;;;5033072;28;20026;-76
2020/12/25 02:29:22;;;;;;;127.90;59.33;;;11.90;99.90;;;;;;5033258;28;20139;-76
2020/12/25 02:31:48;;;;;;;138.68;61.38;;;11.90;99.90;;;;;;5033572;28;20477;-76
2020/12/25 02:34:14;;;;;;;140.50;60.20;;;11.90;99.90;;;;;;5033818;28;20429;-76
2020/12/25 02:36:39;;;;;;;137.57;60.40;;;11.90;99.90;;;;;;5033280;28;20097;-75
2020/12/25 02:39:05;;;;;;;138.70;59.88;;;11.90;99.90;;;;;;5035894;28;20029;-77
2020/12/25 02:41:31;;;;;;;134.45;55.47;;;11.90;99.90;;;;;;5053188;28;20033;-76
2020/12/25 02:43:57;;;;;;;124.10;57.35;;;11.90;99.90;;;;;;5053396;28;20107;-76
2020/12/25 02:46:26;;;;;;;121.72;57.47;;;11.90;99.90;;;;;;5052847;28;20107;-76
2020/12/25 02:48:52;;;;;;;111.70;55.03;;;11.90;99.90;;;;;;5052498;28;20056;-75
2020/12/25 02:51:20;;;;;;;117.28;55.38;;;11.90;99.90;;;;;;5053402;28;20114;-76
2020/12/25 02:53:46;;;;;;;118.47;55.53;;;11.90;99.90;;;;;;5052928;28;20100;-76
2020/12/25 02:56:19;;;;;;;114.13;52.47;;;11.90;99.90;;;;;;5052967;28;20036;-76
2020/12/25 02:58:45;;;;;;;102.65;53.85;;;11.90;99.90;;;;;;5052738;28;20382;-75
2020/12/25 03:01:12;;;;;;;111.32;55.17;;;11.90;99.90;;;;;;5052828;28;20021;-76
2020/12/25 03:03:38;;;;;;;112.13;52.88;;;11.90;99.90;;;;;;5052724;28;20029;-74
2020/12/25 03:06:05;;;;;;;113.40;53.72;;;11.90;99.90;;;;;;5052793;28;20017;-76
2020/12/25 03:08:31;;;;;;;116.13;55.50;;;11.90;99.90;;;;;;5052566;28;20040;-76
2020/12/25 03:10:57;;;;;;;111.10;54.67;;;11.90;99.90;;;;;;5052402;28;20049;-76
2020/12/25 03:13:23;;;;;;;116.38;53.92;;;11.90;99.90;;;;;;5052695;28;20064;-76
2020/12/25 03:15:48;;;;;;;115.03;54.13;;;11.90;99.90;;;;;;5052842;28;20024;-77
2020/12/25 03:18:14;;;;;;;120.00;55.70;;;11.90;99.90;;;;;;5051415;28;20691;-78
2020/12/25 03:20:40;;;;;;;126.13;56.22;;;11.90;99.90;;;;;;5051944;28;20025;-76
2020/12/25 03:23:05;;;;;;;125.53;56.42;;;11.90;99.90;;;;;;5052131;28;20092;-75
2020/12/25 03:25:31;;;;;;;126.28;57.42;;;11.90;99.90;;;;;;5052549;28;20029;-76
2020/12/25 03:27:57;;;;;;;128.35;57.33;;;11.90;99.90;;;;;;5051813;28;20021;-76
2020/12/25 03:30:22;;;;;;;121.97;56.50;;;11.80;99.90;;;;;;5052163;28;20560;-76
2020/12/25 03:32:48;;;;;;;124.22;59.63;;;11.80;99.90;;;;;;5052190;28;20028;-75
2020/12/25 03:35:14;;;;;;;134.80;59.90;;;11.80;99.90;;;;;;5051832;28;20171;-75
2020/12/25 03:37:39;;;;;;;136.20;60.53;;;11.80;99.90;;;;;;5050742;28;20111;-75
2020/12/25 03:40:05;;;;;;;124.38;57.60;;;11.80;99.90;;;;;;5051515;28;20049;-76
2020/12/25 03:42:31;;;;;;;139.65;62.35;;;11.70;99.90;;;;;;5052043;28;20047;-76
2020/12/25 03:44:56;;;;;;;143.13;58.70;;;11.70;99.90;;;;;;5051915;28;20028;-79
2020/12/25 03:47:26;;;;;;;157.82;61.97;;;11.70;99.90;;;;;;5051986;28;20100;-77
2020/12/25 03:49:52;;;;;;;161.45;61.15;;;11.70;99.90;;;;;;5051974;28;20114;-76
2020/12/25 03:52:19;;;;;;;143.85;60.13;;;11.70;99.90;;;;;;5052024;28;20028;-77
2020/12/25 03:54:44;;;;;;;153.57;59.70;;;11.70;99.90;;;;;;5051733;28;20114;-75
2020/12/25 03:57:10;;;;;;;154.88;62.35;;;11.70;99.90;;;;;;5051598;28;20064;-75
2020/12/25 03:59:36;;;;;;;175.00;66.32;;;11.70;99.90;;;;;;5052020;28;20018;-76
2020/12/25 04:02:02;;;;;;;184.27;66.90;;;11.80;99.90;;;;;;5051856;28;20455;-76
2020/12/25 04:04:28;;;;;;;166.77;66.97;;;11.80;99.90;;;;;;5051870;28;20021;-75
2020/12/25 04:06:53;;;;;;;179.77;67.70;;;11.70;99.90;;;;;;5051787;28;20033;-76
2020/12/25 04:09:19;;;;;;;190.82;68.10;;;11.70;99.90;;;;;;5050205;28;20028;-76
2020/12/25 04:11:44;;;;;;;190.18;66.97;;;11.70;99.90;;;;;;5051619;28;20021;-76
2020/12/25 04:14:10;;;;;;;198.05;71.70;;;11.70;99.90;;;;;;5051448;28;20044;-76
2020/12/25 04:16:36;;;;;;;191.13;68.47;;;11.70;99.90;;;;;;5051548;28;20358;-76
2020/12/25 04:19:01;;;;;;;187.10;70.40;;;11.60;99.90;;;;;;5051496;28;20090;-75
2020/12/25 04:21:27;;;;;;;183.15;68.15;;;11.60;99.90;;;;;;5051568;28;20374;-76
2020/12/25 04:23:53;;;;;;;185.77;68.57;;;11.60;99.90;;;;;;5051838;28;20043;-75
2020/12/25 04:26:19;;;;;;;189.02;69.63;;;11.60;99.90;;;;;;5051081;28;20377;-76
2020/12/25 04:28:44;;;;;;;191.18;68.63;;;11.60;99.90;;;;;;5050975;28;20047;-76
2020/12/25 04:31:10;;;;;;;190.63;66.68;;;11.70;99.90;;;;;;5051246;28;20025;-75
2020/12/25 04:33:36;;;;;;;185.35;62.25;;;11.60;99.90;;;;;;5051079;28;20025;-76
2020/12/25 04:36:02;;;;;;;178.45;63.33;;;11.60;99.90;;;;;;5051318;28;20037;-75
2020/12/25 04:38:27;;;;;;;184.98;67.80;;;11.70;99.90;;;;;;5051133;28;20504;-75
2020/12/25 04:40:53;;;;;;;186.48;67.72;;;11.60;99.90;;;;;;5051244;28;20049;-77
2020/12/25 04:43:19;;;;;;;185.57;68.53;;;11.70;99.90;;;;;;5050603;28;20118;-75
2020/12/25 04:45:45;;;;;;;190.63;68.22;;;11.70;99.90;;;;;;5051266;28;20017;-78
2020/12/25 04:48:12;;;;;;;176.63;65.10;;;11.70;99.90;;;;;;5050453;28;20389;-75
2020/12/25 04:50:37;;;;;;;196.93;66.03;;;11.70;99.90;;;;;;5051089;28;20061;-76
2020/12/25 04:53:03;;;;;;;183.23;63.38;;;11.70;99.90;;;;;;5050650;28;20465;-76
2020/12/25 04:55:29;;;;;;;167.95;61.20;;;11.70;99.90;;;;;;5051008;28;20056;-76
2020/12/25 04:57:57;;;;;;;173.32;59.15;;;11.70;99.90;;;;;;5051213;28;20366;-76
2020/12/25 05:00:23;;;;;;;152.30;57.65;;;11.70;99.90;;;;;;5047653;28;20489;-76
2020/12/25 05:02:51;;;;;;;161.95;57.47;;;11.70;99.90;;;;;;5051016;28;20057;-75
2020/12/25 05:05:28;;;;;;;158.07;57.35;;;11.70;99.90;;;;;;5050966;28;20035;-75
2020/12/25 05:07:58;;;;;;;149.45;56.58;;;11.60;99.90;;;;;;5051024;28;20116;-75
2020/12/25 05:10:25;;;;;;;170.77;59.83;;;11.60;99.90;;;;;;5050749;28;20422;-76
2020/12/25 05:12:51;;;;;;;143.88;53.83;;;11.60;99.90;;;;;;5050600;28;20100;-75
2020/12/25 05:15:17;;;;;;;148.05;54.30;;;11.60;99.90;;;;;;5050787;28;20120;-75
2020/12/25 05:17:43;;;;;;;150.05;57.17;;;11.60;99.90;;;;;;5050463;28;20064;-77
2020/12/25 05:20:09;;;;;;;159.63;62.13;;;11.60;99.90;;;;;;5050839;28;20533;-75
2020/12/25 05:22:36;;;;;;;154.77;60.25;;;11.70;99.90;;;;;;5050894;28;20536;-76
2020/12/25 05:25:07;;;;;;;154.65;61.42;;;11.70;99.90;;;;;;5050832;28;20108;-75
2020/12/25 05:27:33;;;;;;;139.95;59.67;;;11.60;99.90;;;;;;5050700;28;20104;-75
2020/12/25 05:30:05;;;;;;;138.48;60.95;;;11.60;99.90;;;;;;5050891;28;20128;-77
2020/12/25 05:32:33;;;;;;;;;;;11.60;99.90;;;;;;5051187;28;20100;-77
2020/12/25 05:34:59;;;;;;;152.27;60.67;;;11.60;99.90;;;;;;5050955;28;19905;-76
2020/12/25 05:37:38;;;;;;;153.32;62.17;;;11.60;99.90;;;;;;5050954;28;20477;-75
2020/12/25 05:40:08;;;;;;;146.57;59.63;;;11.60;99.90;;;;;;5038375;28;20474;-76
2020/12/25 05:42:50;;;;;;;151.48;61.30;;;11.60;99.90;;;;;;5050810;28;20399;-75
2020/12/25 05:45:21;;;;;;;143.68;58.70;;;11.60;99.90;;;;;;5045316;28;20017;-75
2020/12/25 05:48:01;;;;;;;147.23;59.30;;;11.70;99.90;;;;;;5050608;28;20041;-76
2020/12/25 05:50:28;;;;;;;153.25;58.58;;;11.60;99.90;;;;;;5050585;28;20089;-76
2020/12/25 05:52:55;;;;;;;135.45;56.88;;;11.60;99.90;;;;;;5050603;28;20017;-76
2020/12/25 05:55:21;;;;;;;139.38;56.75;;;11.70;99.90;;;;;;5053700;28;20187;-76
2020/12/25 05:57:51;;;;;;;151.95;62.35;;;11.60;99.90;;;;;;5053621;28;20159;-75
2020/12/25 06:00:18;;;;;;;155.68;59.42;;;11.60;99.90;;;;;;5053972;28;20024;-75
2020/12/25 06:02:48;;;;;;;149.52;60.28;;;11.60;99.90;;;;;;5053664;28;20110;-78
2020/12/25 06:05:15;;;;;;;141.20;58.95;;;11.70;99.90;;;;;;5053955;28;20017;-76
2020/12/25 06:07:50;;;;;;;147.10;58.40;;;11.60;99.90;;;;;;5054370;28;20021;-76
2020/12/25 06:10:24;;;;;;;150.43;58.80;;;11.60;99.90;;;;;;5053811;28;20036;-76
2020/12/25 06:12:50;;;;;;;148.20;57.63;;;11.60;99.90;;;;;;5054095;28;20024;-76
2020/12/25 06:15:23;;;;;;;142.50;57.03;;;11.50;99.90;;;;;;5054096;28;20021;-75
2020/12/25 06:18:08;;;;;;;167.48;61.15;;;11.50;99.90;;;;;;5053747;28;20021;-76
2020/12/25 06:20:39;;;;;;;157.38;58.45;;;11.50;99.90;;;;;;5053645;28;20155;-76
2020/12/25 06:23:05;;;;;;;160.00;57.65;;;11.50;99.90;;;;;;5053074;28;20078;-77
2020/12/25 06:25:31;;;;;;;154.60;58.47;;;11.40;99.90;;;;;;5053113;28;20447;-76
2020/12/25 06:28:02;;;;;;;156.82;58.30;;;11.40;99.90;;;;;;5053520;28;20031;-77
2020/12/25 06:30:29;;;;;;;163.15;61.55;;;11.40;99.90;;;;;;5053255;28;20851;-75
2020/12/25 06:32:57;;;;;;;151.57;59.67;;;11.40;99.90;;;;;;5052638;28;20029;-76
2020/12/25 06:35:41;;;;;;;143.48;55.85;;;11.40;99.90;;;;;;5053413;28;20365;-76
2020/12/25 06:38:14;;;;;;;107.05;42.63;;;11.40;99.90;;;;;;5053237;28;20021;-76
2020/12/25 06:40:40;;;;;;;115.75;45.40;;;11.40;99.90;;;;;;5044653;28;20037;-77
2020/12/25 06:43:20;;;;;;;124.97;53.67;;;11.40;99.90;;;;;;5033214;28;20485;-75
2020/12/25 06:45:51;;;;;;;138.70;53.67;;;11.40;99.90;;;;;;5046429;28;20045;-76
2020/12/25 06:48:20;;;;;;;103.80;40.85;;;11.40;99.90;;;;;;5032530;28;20143;-75
2020/12/25 06:50:52;;;;;;;78.13;33.67;;;11.40;99.90;;;;;;5052676;28;20115;-76
2020/12/25 06:53:40;;;;;;;92.53;39.33;;;11.30;99.90;;;;;;5053330;28;20021;-76
2020/12/25 06:56:18;;;;;;;107.32;42.58;;;11.20;99.90;;;;;;5052843;28;20040;-76
2020/12/25 06:58:50;;;;;;;91.50;34.80;;;11.20;99.90;;;;;;5052641;28;20047;-75
2020/12/25 07:01:18;;;;;;;81.60;34.38;;;11.20;99.90;;;;;;5052904;28;20460;-76
2020/12/25 07:03:44;;;;;;;99.68;35.65;;;11.20;99.90;;;;;;5052882;28;20044;-76
2020/12/25 07:06:12;;;;;;;65.22;29.70;;;11.30;99.90;;;;;;5052566;28;20419;-76
2020/12/25 07:08:43;;;;;;;60.58;25.60;;;11.20;99.90;;;;;;5038950;28;20174;-76
2020/12/25 07:11:10;;;;;;;33.45;14.40;;;11.30;99.90;;;;;;5019684;28;20037;-76
2020/12/25 07:13:36;;;;;;;23.83;10.70;;;11.20;99.90;;;;;;5033263;28;20033;-76
2020/12/25 07:16:03;;;;;;;25.88;10.05;;;11.20;99.90;;;;;;5032623;28;20121;-75
2020/12/25 07:18:29;;;;;;;21.50;8.68;;;11.20;99.90;;;;;;5014917;28;20095;-75
2020/12/25 07:21:03;;;;;;;20.10;7.38;;;11.20;99.90;;;;;;5032754;28;20105;-76
2020/12/25 07:23:30;;;;;;;14.68;5.38;;;11.20;99.90;;;;;;5019505;28;20017;-76
2020/12/25 07:26:00;;;;;;;12.18;5.30;;;11.20;99.90;;;;;;5032459;28;20049;-79
2020/12/25 07:28:27;;;;;;;7.32;2.97;;;11.10;99.90;;;;;;5032294;28;20109;-76
2020/12/25 07:30:54;;;;;;;9.35;4.18;;;11.10;99.90;;;;;;5032848;28;20159;-75
2020/12/25 07:33:21;;;;;;;9.43;2.60;;;11.10;99.90;;;;;;5032290;28;20009;-76
2020/12/25 07:35:47;;;;;;;8.35;2.08;;;11.10;99.90;;;;;;5032424;28;20408;-77
2020/12/25 07:38:14;;;;;;;4.88;1.80;;;11.10;99.90;;;;;;5032116;28;20057;-76
2020/12/25 07:40:44;;;;;;;7.03;1.73;;;11.00;99.90;;;;;;5032224;28;20033;-76
2020/12/25 07:43:11;;;;;;;4.50;1.42;;;11.00;99.90;;;;;;5031827;28;20026;-75
2020/12/25 07:45:37;;;;;;;3.33;1.85;;;10.90;99.90;;;;;;5032020;28;20385;-76
2020/12/25 07:48:05;;;;;;;3.97;1.70;;;10.90;99.90;;;;;;5032201;28;20382;-76
2020/12/25 07:50:39;;;;;;;5.43;1.25;;;10.90;99.90;;;;;;5032056;28;20033;-76
2020/12/25 07:53:31;;;;;;;7.28;1.98;;;10.90;99.90;;;;;;5032084;28;20024;-75
2020/12/25 07:55:58;;;;;;;;;;;10.80;99.90;;;;;;5019548;28;20478;-75
2020/12/25 07:58:23;;;;;;;5.50;1.75;;;10.80;99.90;;;;;;5031769;28;19909;-75
2020/12/25 08:00:49;;;;;;;4.93;1.77;;;10.70;99.90;;;;;;5031587;28;20028;-76
2020/12/25 08:03:15;;;;;;;3.05;2.05;;;10.60;99.90;;;;;;5031199;28;20029;-75
2020/12/25 08:05:41;;;;;;;2.38;1.63;;;10.60;99.90;;;;;;5031424;28;20048;-75
2020/12/25 08:08:08;;;;;;;3.22;1.40;;;10.60;99.90;;;;;;5030911;28;20056;-75
2020/12/25 08:10:35;;;;;;;6.45;1.60;;;10.50;99.90;;;;;;5031482;28;20537;-76
2020/12/25 08:13:04;;;;;;;3.00;1.38;;;10.50;99.90;;;;;;5032087;28;20018;-76
2020/12/25 08:15:33;;;;;;;2.95;1.38;;;10.50;99.90;;;;;;5031663;28;20115;-76
2020/12/25 08:17:59;;;;;;;4.47;1.50;;;10.40;99.90;;;;;;5030722;28;20018;-75
2020/12/25 08:20:25;;;;;;;5.60;1.77;;;10.40;99.90;;;;;;5031070;28;20030;-77
2020/12/25 08:23:01;;;;;;;4.78;1.80;;;10.40;99.90;;;;;;5031904;28;20044;-76
2020/12/25 08:25:31;;;;;;;2.42;1.50;;;10.30;99.90;;;;;;5032004;28;20028;-75
2020/12/25 08:27:57;;;;;;;4.28;1.40;;;10.30;99.90;;;;;;5031585;28;20415;-76
2020/12/25 08:30:24;;;;;;;4.00;1.48;;;10.40;99.90;;;;;;5031592;28;20120;-76
2020/12/25 08:33:00;;;;;;;3.30;1.52;;;10.40;99.90;;;;;;5031714;28;20097;-76
2020/12/25 08:35:28;;;;;;;2.70;1.40;;;10.30;99.90;;;;;;5026285;28;20029;-77
2020/12/25 08:38:03;;;;;;;2.97;1.83;;;10.30;99.90;;;;;;5031658;28;20026;-79
2020/12/25 08:40:34;;;;;;;6.43;1.70;;;10.30;99.90;;;;;;5025821;28;20091;-77
2020/12/25 08:43:13;;;;;;;3.67;1.70;;;10.30;99.90;;;;;;5030886;28;20033;-77
2020/12/25 08:46:00;;;;;;;2.67;1.63;;;10.30;99.90;;;;;;5029135;28;20597;-77
2020/12/25 08:48:29;;;;;;;5.25;3.42;;;10.40;99.90;;;;;;5032142;28;20564;-77
2020/12/25 08:51:09;;;;;;;10.88;8.48;;;10.40;99.90;;;;;;5028654;28;20488;-77
2020/12/25 08:53:35;;;;;;;6.88;3.05;;;10.40;99.90;;;;;;5028501;28;20048;-77
2020/12/25 08:56:15;;;;;;;8.23;3.30;;;10.50;99.90;;;;;;5030762;28;20025;-76
2020/12/25 08:58:41;;;;;;;10.43;4.80;;;10.40;99.90;;;;;;5027863;28;20474;-77
2020/12/25 09:01:06;;;;;;;14.75;7.13;;;10.50;99.90;;;;;;5032449;28;20029;-76
2020/12/25 09:03:42;;;;;;;19.52;10.93;;;10.60;99.90;;;;;;5023903;28;20029;-76
2020/12/25 09:06:09;;;;;;;17.52;11.57;;;10.60;99.90;;;;;;5021633;28;20088;-76
2020/12/25 09:08:36;;;;;;;8.23;5.35;;;10.60;99.90;;;;;;5028541;28;20032;-77
2020/12/25 09:11:07;;;;;;;7.40;3.50;;;10.60;99.90;;;;;;5017228;28;20030;-76
2020/12/25 09:13:33;;;;;;;19.87;11.27;;;10.50;99.90;;;;;;5013005;28;20018;-76
2020/12/25 09:15:59;;;;;;;9.35;4.55;;;10.60;99.90;;;;;;5030693;28;20433;-75
2020/12/25 09:18:24;;;;;;;8.32;3.00;;;10.60;99.90;;;;;;5030733;28;20029;-77
2020/12/25 09:20:50;;;;;;;3.85;2.60;;;10.60;99.90;;;;;;5031003;28;20048;-76
2020/12/25 09:23:16;;;;;;;28.98;19.15;;;10.60;99.90;;;;;;5013026;28;20018;-77
2020/12/25 09:25:41;;;;;;;8.43;4.78;;;10.60;99.90;;;;;;5029632;28;20079;-76
2020/12/25 09:28:07;;;;;;;5.13;3.15;;;10.60;99.90;;;;;;5031729;28;20044;-76
2020/12/25 09:30:32;;;;;;;9.10;2.30;;;10.60;99.90;;;;;;5036495;28;20478;-74
2020/12/25 09:32:58;;;;;;;3.13;2.05;;;10.60;99.90;;;;;;5034505;28;20032;-77
2020/12/25 09:35:24;;;;;;;4.88;2.67;;;10.70;99.90;;;;;;5036226;28;20079;-75
2020/12/25 09:37:49;;;;;;;5.53;2.60;;;10.70;99.90;;;;;;5039468;28;20442;-76
2020/12/25 09:40:15;;;;;;;5.47;2.85;;;10.80;99.90;;;;;;5036181;28;20045;-76
2020/12/25 09:42:41;;;;;;;2.13;1.83;;;10.80;99.90;;;;;;5026753;28;20471;-75
2020/12/25 09:45:06;;;;;;;2.85;1.75;;;10.90;99.90;;;;;;5029983;28;20041;-76
2020/12/25 09:47:32;;;;;;;8.50;1.80;;;10.90;99.90;;;;;;5030623;28;20025;-77
2020/12/25 09:49:58;;;;;;;3.60;2.17;;;11.00;99.90;;;;;;5032929;28;20033;-76
2020/12/25 09:52:23;;;;;;;4.30;1.50;;;10.90;99.90;;;;;;5028949;28;20029;-75
2020/12/25 09:54:49;;;;;;;2.08;1.60;;;10.90;99.90;;;;;;5027822;28;20125;-75
2020/12/25 09:57:14;;;;;;;3.08;1.80;;;10.90;99.90;;;;;;5023190;28;20030;-76
2020/12/25 09:59:40;;;;;;;3.75;2.28;;;11.00;99.90;;;;;;5020059;28;20021;-76
2020/12/25 10:02:06;;;;;;;3.78;2.25;;;10.90;99.90;;;;;;5028173;28;20022;-75
2020/12/25 10:04:36;;;;;;;2.70;1.63;;;10.80;99.90;;;;;;5031525;28;20068;-78
2020/12/25 10:07:04;;;;;;;2.42;1.60;;;10.80;99.90;;;;;;5021418;28;20031;-75
2020/12/25 10:09:30;;;;;;;4.93;1.88;;;10.80;99.90;;;;;;5027438;28;20034;-75
2020/12/25 10:11:56;;;;;;;1.88;1.40;;;10.80;99.90;;;;;;5032221;28;20029;-78
2020/12/25 10:14:21;;;;;;;2.30;1.85;;;10.80;99.90;;;;;;5032687;28;20029;-76
2020/12/25 10:16:47;;;;;;;2.75;1.42;;;10.90;99.90;;;;;;5032972;28;20026;-77
2020/12/25 10:19:13;;;;;;;2.65;1.77;;;10.90;99.90;;;;;;5032661;28;20037;-75
2020/12/25 10:21:38;;;;;;;1.20;1.10;;;11.00;99.90;;;;;;5033342;28;20021;-76
2020/12/25 10:24:04;;;;;;;1.20;0.98;;;11.10;99.90;;;;;;5030805;28;20033;-75
2020/12/25 10:26:30;;;;;;;4.07;1.85;;;11.20;99.90;;;;;;5035274;28;20048;-75
2020/12/25 10:28:55;;;;;;;3.42;1.75;;;11.20;99.90;;;;;;5037896;28;20029;-75
2020/12/25 10:31:21;;;;;;;2.65;1.30;;;11.30;99.90;;;;;;5031916;28;20433;-78
2020/12/25 10:33:46;;;;;;;2.75;1.30;;;11.30;99.90;;;;;;5033443;28;20017;-76
2020/12/25 10:36:12;;;;;;;2.17;1.60;;;11.30;99.90;;;;;;5032317;28;20485;-76
2020/12/25 10:38:38;;;;;;;7.03;1.77;;;11.30;99.90;;;;;;5036488;28;20025;-76
2020/12/25 10:41:04;;;;;;;20.58;9.85;;;11.40;99.90;;;;;;5046942;28;20091;-76
2020/12/25 10:43:30;;;;;;;3.03;1.90;;;11.30;99.90;;;;;;5052301;28;20072;-77
2020/12/25 10:45:56;;;;;;;12.13;6.97;;;11.10;99.90;;;;;;5052047;28;20021;-77
2020/12/25 10:48:22;;;;;;;17.48;9.40;;;11.00;99.90;;;;;;5052400;28;20470;-75
2020/12/25 10:50:47;;;;;;;4.60;2.55;;;11.00;99.90;;;;;;5051144;28;20071;-75
2020/12/25 10:53:13;;;;;;;1.60;1.50;;;10.90;99.90;;;;;;5051021;28;20025;-75
2020/12/25 10:55:38;;;;;;;4.75;2.33;;;10.70;99.90;;;;;;5051263;28;20552;-75
2020/12/25 10:58:05;;;;;;;2.88;1.83;;;10.60;99.90;;;;;;5050762;28;20048;-75
2020/12/25 11:00:31;;;;;;;2.53;1.52;;;10.50;99.90;;;;;;5052246;28;20494;-74
2020/12/25 11:02:56;;;;;;;1.75;1.40;;;10.40;99.90;;;;;;5051666;28;20037;-77
2020/12/25 11:05:22;;;;;;;2.42;1.27;;;10.30;99.90;;;;;;5040826;28;20034;-77
2020/12/25 11:07:48;;;;;;;1.20;0.90;;;10.20;99.90;;;;;;5039433;28;20029;-76
2020/12/25 11:10:13;;;;;;;1.65;1.55;;;10.20;99.90;;;;;;5051829;28;20068;-75
2020/12/25 11:12:39;;;;;;;1.75;1.65;;;10.20;99.90;;;;;;5052308;28;20028;-78
2020/12/25 11:15:04;;;;;;;1.50;1.40;;;10.20;99.90;;;;;;5051810;28;20025;-75
2020/12/25 11:17:30;;;;;;;1.92;1.73;;;10.10;99.90;;;;;;5039855;28;20033;-76
2020/12/25 11:19:56;;;;;;;2.10;1.73;;;10.10;99.90;;;;;;5033313;28;20056;-75
2020/12/25 11:22:22;;;;;;;2.28;2.00;;;10.10;99.90;;;;;;5046303;28;20389;-76
2020/12/25 11:24:48;;;;;;;3.78;2.28;;;10.10;99.90;;;;;;5043758;28;20037;-74
2020/12/25 11:27:13;;;;;;;2.53;1.92;;;10.10;99.90;;;;;;5036663;28;20026;-75
2020/12/25 11:29:39;;;;;;;3.72;2.20;;;10.10;99.90;;;;;;5041754;28;20037;-76
2020/12/25 11:32:05;;;;;;;11.00;4.95;;;10.20;99.90;;;;;;5050983;28;20044;-75
2020/12/25 11:34:30;;;;;;;4.28;3.08;;;10.20;99.90;;;;;;5048888;28;20060;-76
2020/12/25 11:36:56;;;;;;;2.85;1.95;;;10.20;99.90;;;;;;5050585;28;20040;-75
2020/12/25 11:39:22;;;;;;;2.67;2.47;;;10.20;99.90;;;;;;5050368;28;20389;-76
2020/12/25 11:41:47;;;;;;;4.78;2.80;;;10.10;99.90;;;;;;5047898;28;20583;-76
2020/12/25 11:44:13;;;;;;;4.90;3.45;;;10.10;99.90;;;;;;5050411;28;20151;-80
2020/12/25 11:46:39;;;;;;;5.95;1.80;;;10.00;99.90;;;;;;5050434;28;20452;-76
2020/12/25 11:49:06;;;;;;;7.15;3.95;;;10.00;99.90;;;;;;5051035;28;20048;-81
2020/12/25 11:51:32;;;;;;;1.63;1.40;;;10.00;99.90;;;;;;5051422;28;20023;-75
2020/12/25 11:53:58;;;;;;;6.15;1.80;;;10.00;99.90;;;;;;5051380;28;20028;-77
2020/12/25 11:56:28;;;;;;;5.22;2.97;;;10.10;99.90;;;;;;5050640;28;20477;-77
2020/12/25 11:58:54;;;;;;;2.92;2.28;;;10.10;99.90;;;;;;5048492;28;20021;-75
2020/12/25 12:01:20;;;;;;;5.50;2.95;;;10.10;99.90;;;;;;5050738;28;20025;-75
2020/12/25 12:03:46;;;;;;;6.50;4.07;;;10.10;99.90;;;;;;5048425;28;20116;-76
2020/12/25 12:06:18;;;;;;;4.20;2.65;;;10.20;99.90;;;;;;5049076;28;20398;-76
2020/12/25 12:08:43;;;;;;;6.13;2.97;;;10.10;99.90;;;;;;5047908;28;20056;-75
2020/12/25 12:11:09;;;;;;;11.38;5.78;;;10.10;99.90;;;;;;5048528;28;20044;-75
2020/12/25 12:13:35;;;;;;;8.15;4.00;;;10.20;99.90;;;;;;5047060;28;20060;-75
2020/12/25 12:16:01;;;;;;;14.23;5.47;;;10.20;99.90;;;;;;5047067;28;20021;-75
2020/12/25 12:18:27;;;;;;;4.30;2.60;;;10.20;99.90;;;;;;5038392;28;20036;-74
2020/12/25 12:20:52;;;;;;;7.15;4.00;;;10.20;99.90;;;;;;5041325;28;20200;-72
2020/12/25 12:23:18;;;;;;;3.65;2.45;;;10.20;99.90;;;;;;5044940;28;20060;-74
2020/12/25 12:25:44;;;;;;;5.50;3.00;;;10.20;99.90;;;;;;5046958;28;20469;-72
2020/12/25 12:28:09;;;;;;;6.55;3.63;;;10.20;99.90;;;;;;5039193;28;20016;-73
2020/12/25 12:30:35;;;;;;;3.40;2.45;;;10.20;99.90;;;;;;5043789;28;20052;-72